createdAt,value
2023-01-09T00:00:47.820Z,13.25
2023-01-09T00:03:14.643Z,11.93
2023-01-09T00:05:41.323Z,16.15
2023-01-09T00:08:08.173Z,11.82
2023-01-09T00:10:35.337Z,12.15
2023-01-09T00:13:02.075Z,10.73
2023-01-09T00:15:28.826Z,12.38
2023-01-09T00:17:55.459Z,12.55
2023-01-09T00:20:22.194Z,16.08
2023-01-09T00:22:48.846Z,12.10
2023-01-09T00:25:15.543Z,11.40
2023-01-09T00:27:42.365Z,13.93
2023-01-09T00:30:10.332Z,7.63
2023-01-09T00:32:36.970Z,11.80
2023-01-09T00:35:04.006Z,8.27
2023-01-09T00:37:30.677Z,6.15
2023-01-09T00:39:57.420Z,7.07
2023-01-09T00:42:30.737Z,6.28
2023-01-09T00:45:01.905Z,7.47
2023-01-09T00:47:35.924Z,6.53
2023-01-09T00:50:09.455Z,3.53
2023-01-09T00:52:38.255Z,4.85
2023-01-09T00:55:05.972Z,6.85
2023-01-09T00:57:33.167Z,1.83
2023-01-09T01:00:00.582Z,3.92
2023-01-09T01:02:27.275Z,5.20
2023-01-09T01:05:13.243Z,9.15
2023-01-09T01:07:40.136Z,6.25
2023-01-09T01:10:12.995Z,5.55
2023-01-09T01:12:40.402Z,3.53
2023-01-09T01:15:08.535Z,4.55
2023-01-09T01:17:37.463Z,10.98
2023-01-09T01:20:06.657Z,7.63
2023-01-09T01:22:33.399Z,7.03
2023-01-09T01:25:00.123Z,8.07
2023-01-09T01:27:28.785Z,9.15
2023-01-09T01:29:55.971Z,7.30
2023-01-09T01:32:22.853Z,11.95
2023-01-09T01:34:49.628Z,9.25
2023-01-09T01:37:16.296Z,10.32
2023-01-09T01:39:43.023Z,9.40
2023-01-09T01:42:12.956Z,10.05
2023-01-09T01:45:07.911Z,11.63
2023-01-09T01:47:45.078Z,7.57
2023-01-09T01:50:35.431Z,6.93
2023-01-09T01:53:08.348Z,8.85
2023-01-09T01:55:43.728Z,8.10
2023-01-09T01:58:14.422Z,10.45
2023-01-09T02:00:45.023Z,9.80
2023-01-09T02:03:15.382Z,9.35
2023-01-09T02:05:42.093Z,9.85
2023-01-09T02:08:09.276Z,9.35
2023-01-09T02:10:38.206Z,11.35
2023-01-09T02:13:06.362Z,10.55
2023-01-09T02:15:57.072Z,10.18
2023-01-09T02:21:29.773Z,8.05
2023-01-09T02:24:09.883Z,7.10
2023-01-09T02:27:01.851Z,11.15
2023-01-09T02:29:40.658Z,9.27
2023-01-09T02:32:36.922Z,12.13
2023-01-09T02:35:16.823Z,11.45
2023-01-09T02:37:55.159Z,11.10
2023-01-09T02:40:33.664Z,10.30
2023-01-09T02:43:01.654Z,8.57
2023-01-09T02:45:28.365Z,11.00
2023-01-09T02:47:55.047Z,9.52
2023-01-09T02:50:27.877Z,10.25
2023-01-09T02:53:22.210Z,11.85
2023-01-09T02:56:03.912Z,13.18
2023-01-09T02:59:09.035Z,14.93
2023-01-09T03:01:57.197Z,12.48
2023-01-09T03:04:39.575Z,9.55
2023-01-09T03:07:33.301Z,8.35
2023-01-09T03:10:19.530Z,11.68
2023-01-09T03:12:49.075Z,14.25
2023-01-09T03:15:18.515Z,11.60
2023-01-09T03:17:48.543Z,12.05
2023-01-09T03:20:21.309Z,12.75
2023-01-09T03:22:59.783Z,14.75
2023-01-09T03:25:28.449Z,15.32
2023-01-09T03:28:01.585Z,11.45
2023-01-09T03:30:30.349Z,11.77
2023-01-09T03:32:57.565Z,12.52
2023-01-09T03:35:24.338Z,13.00
2023-01-09T03:37:51.925Z,14.05
2023-01-09T03:40:19.547Z,13.77
2023-01-09T03:42:46.911Z,15.50
2023-01-09T03:45:14.091Z,16.42
2023-01-09T03:47:40.771Z,13.07
2023-01-09T03:50:08.142Z,15.35
2023-01-09T03:52:36.092Z,15.02
2023-01-09T03:55:02.954Z,15.27
2023-01-09T03:57:29.839Z,14.15
2023-01-09T03:59:56.594Z,17.27
2023-01-09T04:02:23.332Z,14.60
2023-01-09T04:04:49.945Z,16.23
2023-01-09T04:07:16.867Z,15.23
2023-01-09T04:09:43.506Z,15.95
2023-01-09T04:12:10.224Z,14.52
2023-01-09T04:14:36.937Z,17.17
2023-01-09T04:17:03.604Z,14.02
2023-01-09T04:19:30.247Z,16.52
2023-01-09T04:21:56.986Z,18.98
2023-01-09T04:24:23.576Z,16.05
2023-01-09T04:26:50.313Z,14.07
2023-01-09T04:29:16.916Z,16.48
2023-01-09T04:31:44.004Z,15.90
2023-01-09T04:34:10.687Z,17.45
2023-01-09T04:36:37.404Z,16.10
2023-01-09T04:39:04.175Z,17.73
2023-01-09T04:41:49.077Z,18.45
2023-01-09T04:44:26.385Z,17.92
2023-01-09T04:46:54.639Z,18.00
2023-01-09T04:49:22.264Z,18.23
2023-01-09T04:51:49.199Z,17.23
2023-01-09T04:54:16.119Z,18.92
2023-01-09T04:56:42.958Z,16.85
2023-01-09T04:59:09.750Z,16.83
2023-01-09T05:01:36.668Z,21.45
2023-01-09T05:04:03.977Z,17.15
2023-01-09T05:06:31.436Z,16.40
2023-01-09T05:08:58.441Z,17.40
2023-01-09T05:11:25.679Z,18.95
2023-01-09T05:13:53.343Z,18.27
2023-01-09T05:16:21.296Z,19.17
2023-01-09T05:18:48.323Z,17.85
2023-01-09T05:21:15.017Z,17.77
2023-01-09T05:23:41.797Z,18.83
2023-01-09T05:26:08.479Z,18.67
2023-01-09T05:28:35.149Z,20.30
2023-01-09T05:31:01.875Z,22.45
2023-01-09T05:33:28.561Z,19.60
2023-01-09T05:35:55.258Z,19.92
2023-01-09T05:38:22.081Z,19.85
2023-01-09T05:40:48.826Z,21.15
2023-01-09T05:43:15.564Z,22.25
2023-01-09T05:45:43.384Z,24.20
2023-01-09T05:48:10.203Z,21.77
2023-01-09T05:50:36.830Z,22.83
2023-01-09T05:53:03.765Z,21.10
2023-01-09T05:55:30.478Z,22.65
2023-01-09T05:57:57.084Z,21.92
2023-01-09T06:00:23.958Z,22.52
2023-01-09T06:02:50.693Z,23.23
2023-01-09T06:05:17.541Z,22.08
2023-01-09T06:07:44.364Z,24.02
2023-01-09T06:10:13.451Z,23.38
2023-01-09T06:12:40.513Z,23.13
2023-01-09T06:15:09.057Z,24.00
2023-01-09T06:17:36.024Z,22.83
2023-01-09T06:20:02.935Z,20.35
2023-01-09T06:22:29.724Z,21.98
2023-01-09T06:24:56.416Z,24.27
2023-01-09T06:27:23.079Z,22.25
2023-01-09T06:29:49.795Z,23.38
2023-01-09T06:32:16.608Z,23.42
2023-01-09T06:34:43.353Z,22.95
2023-01-09T06:37:10.565Z,23.38
2023-01-09T06:39:37.263Z,23.63
2023-01-09T06:42:04.110Z,24.15
2023-01-09T06:44:30.970Z,28.50
2023-01-09T06:46:57.766Z,23.40
2023-01-09T06:49:24.964Z,23.15
2023-01-09T06:51:51.802Z,21.73
2023-01-09T06:54:19.389Z,22.42
2023-01-09T06:56:46.077Z,23.55
2023-01-09T06:59:13.247Z,21.67
2023-01-09T07:01:40.227Z,19.92
2023-01-09T07:04:08.148Z,21.90
2023-01-09T07:06:35.160Z,21.02
2023-01-09T07:09:01.921Z,20.88
2023-01-09T07:11:28.558Z,23.67
2023-01-09T07:13:55.360Z,22.45
2023-01-09T07:16:22.088Z,19.67
2023-01-09T07:18:48.821Z,20.48
2023-01-09T07:21:15.620Z,24.80
2023-01-09T07:23:42.397Z,19.90
2023-01-09T07:26:09.537Z,20.35
2023-01-09T07:28:36.417Z,19.15
2023-01-09T07:31:04.725Z,20.55
2023-01-09T07:33:31.469Z,21.10
2023-01-09T07:35:58.164Z,19.73
2023-01-09T07:38:24.966Z,21.02
2023-01-09T07:40:51.916Z,19.58
2023-01-09T07:43:18.772Z,17.40
2023-01-09T07:45:46.902Z,18.20
2023-01-09T07:48:13.711Z,19.23
2023-01-09T07:50:40.534Z,18.65
2023-01-09T07:53:07.360Z,16.77
2023-01-09T07:55:34.060Z,21.55
2023-01-09T07:58:00.922Z,19.08
2023-01-09T08:00:27.644Z,19.55
2023-01-09T08:02:55.042Z,22.90
2023-01-09T08:05:22.044Z,17.70
2023-01-09T08:07:50.854Z,19.20
2023-01-09T08:10:19.948Z,19.10
2023-01-09T08:12:47.642Z,17.80
2023-01-09T08:15:15.250Z,17.83
2023-01-09T08:17:43.479Z,17.98
2023-01-09T08:20:12.460Z,17.35
2023-01-09T08:22:41.977Z,18.67
2023-01-09T08:25:12.085Z,19.10
2023-01-09T08:30:06.832Z,17.63
2023-01-09T08:32:33.459Z,19.70
2023-01-09T08:35:00.299Z,22.23
2023-01-09T08:37:27.095Z,15.82
2023-01-09T08:39:53.858Z,17.80
2023-01-09T08:42:39.800Z,17.05
2023-01-09T08:45:25.658Z,18.63
2023-01-09T08:47:52.638Z,15.15
2023-01-09T08:50:19.701Z,17.63
2023-01-09T08:52:46.732Z,17.02
2023-01-09T08:55:13.469Z,15.50
2023-01-09T08:57:49.302Z,18.00
2023-01-09T09:00:17.452Z,16.00
2023-01-09T09:02:44.446Z,18.95
2023-01-09T09:05:11.629Z,16.02
2023-01-09T09:07:38.354Z,15.50
2023-01-09T09:10:05.510Z,18.17
2023-01-09T09:12:32.275Z,15.00
2023-01-09T09:15:15.793Z,14.25
2023-01-09T09:17:44.558Z,15.25
2023-01-09T09:20:12.019Z,17.42
2023-01-09T09:22:39.274Z,17.85
2023-01-09T09:25:06.293Z,15.27
2023-01-09T09:27:33.401Z,27.15
2023-01-09T09:30:00.299Z,14.27
2023-01-09T09:32:27.116Z,17.02
2023-01-09T09:34:53.725Z,15.95
2023-01-09T09:37:20.450Z,14.30
2023-01-09T09:39:47.301Z,16.85
2023-01-09T09:43:13.550Z,18.65
2023-01-09T09:45:56.007Z,15.57
2023-01-09T09:48:45.689Z,15.18
2023-01-09T09:51:40.209Z,18.75
2023-01-09T09:54:21.864Z,15.43
2023-01-09T09:56:53.021Z,20.02
2023-01-09T09:59:24.122Z,13.52
2023-01-09T10:02:00.861Z,15.68
2023-01-09T10:04:32.195Z,14.70
2023-01-09T10:07:11.175Z,18.23
2023-01-09T10:09:46.107Z,17.15
2023-01-09T10:12:19.517Z,17.67
2023-01-09T10:14:46.303Z,15.98
2023-01-09T10:17:45.271Z,15.00
2023-01-09T10:20:23.890Z,18.13
2023-01-09T10:23:39.736Z,15.73
2023-01-09T10:26:21.159Z,15.25
2023-01-09T10:28:50.692Z,16.55
2023-01-09T10:31:22.266Z,16.17
2023-01-09T10:34:16.816Z,15.10
2023-01-09T10:36:55.839Z,15.48
2023-01-09T10:39:44.799Z,14.55
2023-01-09T10:42:20.452Z,14.25
2023-01-09T10:44:53.676Z,16.83
2023-01-09T10:47:31.772Z,19.33
2023-01-09T10:49:59.313Z,15.82
2023-01-09T10:52:36.223Z,18.38
2023-01-09T10:55:14.463Z,17.88
2023-01-09T10:57:47.696Z,15.60
2023-01-09T11:00:18.007Z,18.48
2023-01-09T11:02:45.369Z,18.17
2023-01-09T11:05:21.141Z,39.55
2023-01-09T11:07:53.545Z,52.47
2023-01-09T11:10:22.780Z,28.88
2023-01-09T11:12:49.565Z,108.00
2023-01-09T11:15:29.162Z,27.40
2023-01-09T11:18:16.095Z,16.07
2023-01-09T11:20:43.076Z,14.82
2023-01-09T11:23:33.063Z,13.70
2023-01-09T11:26:02.271Z,16.48
2023-01-09T11:28:29.699Z,17.15
2023-01-09T11:31:02.558Z,13.80
2023-01-09T11:33:37.888Z,14.77
2023-01-09T11:36:14.935Z,14.35
2023-01-09T11:38:52.537Z,13.43
2023-01-09T11:41:23.318Z,17.73
2023-01-09T11:43:53.536Z,16.80
2023-01-09T11:46:31.075Z,14.65
2023-01-09T11:48:59.515Z,21.17
2023-01-09T11:51:31.686Z,16.85
2023-01-09T11:54:00.638Z,17.00
2023-01-09T11:56:27.745Z,16.10
2023-01-09T11:58:54.679Z,17.67
2023-01-09T12:01:39.296Z,15.77
2023-01-09T12:04:20.451Z,17.20
2023-01-09T12:07:34.032Z,14.68
2023-01-09T12:10:09.807Z,16.05
2023-01-09T12:12:54.856Z,16.02
2023-01-09T12:15:33.899Z,17.45
2023-01-09T12:18:12.524Z,19.38
2023-01-09T12:21:18.146Z,19.88
2023-01-09T12:24:09.833Z,19.52
2023-01-09T12:26:50.105Z,16.48
2023-01-09T12:29:44.443Z,15.68
2023-01-09T12:32:17.227Z,16.20
2023-01-09T12:35:22.361Z,18.10
2023-01-09T12:38:14.268Z,18.65
2023-01-09T12:41:13.691Z,18.98
2023-01-09T12:44:09.660Z,17.08
2023-01-09T12:46:47.837Z,15.40
2023-01-09T12:49:44.411Z,17.48
2023-01-09T12:52:24.036Z,21.33
2023-01-09T12:54:59.876Z,17.43
2023-01-09T12:57:31.764Z,16.48
2023-01-09T13:00:03.296Z,16.83
2023-01-09T13:02:45.222Z,17.30
2023-01-09T13:05:34.174Z,17.58
2023-01-09T13:08:05.904Z,19.55
2023-01-09T13:10:42.309Z,18.23
2023-01-09T13:13:19.927Z,16.92
2023-01-09T13:15:53.160Z,17.50
2023-01-09T13:18:27.449Z,23.02
2023-01-09T13:20:58.500Z,18.10
2023-01-09T13:23:40.457Z,17.55
2023-01-09T13:26:14.531Z,18.58
2023-01-09T13:28:49.152Z,19.13
2023-01-09T13:31:19.449Z,17.52
2023-01-09T13:33:53.011Z,17.60
2023-01-09T13:36:29.479Z,19.63
2023-01-09T13:39:01.067Z,19.40
2023-01-09T13:41:48.334Z,18.98
2023-01-09T13:44:18.242Z,19.42
2023-01-09T13:47:05.487Z,18.45
2023-01-09T13:49:41.320Z,18.77
2023-01-09T13:52:37.090Z,18.70
2023-01-09T13:55:04.021Z,18.05
2023-01-09T13:57:36.370Z,20.23
2023-01-09T14:00:15.483Z,17.05
2023-01-09T14:02:44.718Z,19.25
2023-01-09T14:05:14.204Z,19.20
2023-01-09T14:07:48.981Z,21.67
2023-01-09T14:10:27.505Z,21.40
2023-01-09T14:12:57.230Z,19.95
2023-01-09T14:15:32.789Z,21.43
2023-01-09T14:18:06.762Z,18.95
2023-01-09T14:20:39.794Z,18.23
2023-01-09T14:23:31.454Z,18.88
2023-01-09T14:25:55.671Z,22.60
2023-01-09T14:28:27.544Z,23.42
2023-01-09T14:30:54.163Z,18.90
2023-01-09T14:33:21.816Z,27.55
2023-01-09T14:36:10.269Z,19.67
2023-01-09T14:38:44.784Z,18.20
2023-01-09T14:41:58.187Z,22.10
2023-01-09T14:44:40.908Z,30.98
2023-01-09T14:47:37.456Z,17.38
2023-01-09T14:50:25.563Z,20.13
2023-01-09T14:52:59.852Z,20.05
2023-01-09T14:55:53.172Z,20.50
2023-01-09T14:58:32.107Z,21.65
2023-01-09T15:01:04.326Z,18.02
2023-01-09T15:03:45.773Z,16.73
2023-01-09T15:06:18.554Z,22.08
2023-01-09T15:08:48.026Z,18.35
2023-01-09T15:11:14.918Z,17.70
2023-01-09T15:13:46.255Z,23.90
2023-01-09T15:16:19.545Z,16.83
2023-01-09T15:18:52.814Z,18.25
2023-01-09T15:21:23.647Z,21.17
2023-01-09T15:23:50.714Z,19.55
2023-01-09T15:26:29.252Z,20.17
2023-01-09T15:29:13.125Z,21.05
2023-01-09T15:31:43.451Z,17.38
2023-01-09T15:34:17.721Z,20.13
2023-01-09T15:36:45.127Z,22.55
2023-01-09T15:39:19.942Z,18.95
2023-01-09T15:42:05.862Z,17.52
2023-01-09T15:44:36.408Z,18.05
2023-01-09T15:49:34.124Z,16.42
2023-01-09T15:52:02.240Z,19.15
2023-01-09T15:54:31.197Z,12.70
2023-01-09T15:57:25.954Z,11.27
2023-01-09T15:59:57.850Z,11.68
2023-01-09T16:02:44.361Z,9.85
2023-01-09T16:05:16.265Z,9.65
2023-01-09T16:07:47.676Z,13.55
2023-01-09T16:10:30.513Z,13.18
2023-01-09T16:12:57.787Z,14.90
2023-01-09T16:15:25.485Z,14.88
2023-01-09T16:18:29.282Z,13.98
2023-01-09T16:21:31.226Z,15.13
2023-01-09T16:24:01.075Z,13.27
2023-01-09T16:26:29.887Z,18.77
2023-01-09T16:28:57.079Z,16.90
2023-01-09T16:31:30.147Z,15.63
2023-01-09T16:34:06.367Z,21.75
2023-01-09T16:36:36.763Z,17.23
2023-01-09T16:39:06.653Z,21.63
2023-01-09T16:41:52.562Z,18.93
2023-01-09T16:44:19.475Z,25.77
2023-01-09T16:46:46.575Z,16.85
2023-01-09T16:49:19.476Z,18.20
2023-01-09T16:51:47.405Z,17.50
2023-01-09T16:54:14.839Z,18.73
2023-01-09T16:56:44.189Z,19.95
2023-01-09T16:59:29.411Z,19.45
2023-01-09T17:01:56.407Z,19.85
2023-01-09T17:04:26.161Z,23.00
2023-01-09T17:06:52.836Z,22.37
2023-01-09T17:09:23.666Z,22.85
2023-01-09T17:11:51.953Z,20.88
2023-01-09T17:14:18.560Z,21.08
2023-01-09T17:16:48.224Z,21.88
2023-01-09T17:19:20.366Z,17.88
2023-01-09T17:21:47.157Z,20.20
2023-01-09T17:24:34.905Z,22.83
2023-01-09T17:27:31.828Z,21.13
2023-01-09T17:29:59.452Z,25.50
2023-01-09T17:32:27.743Z,24.17
2023-01-09T17:34:54.757Z,20.02
2023-01-09T17:37:21.796Z,22.25
2023-01-09T17:39:48.951Z,23.05
2023-01-09T17:42:15.631Z,27.88
2023-01-09T17:44:42.594Z,24.20
2023-01-09T17:47:15.838Z,23.58
2023-01-09T17:49:43.036Z,21.45
2023-01-09T17:52:09.995Z,23.98
2023-01-09T17:54:36.914Z,25.50
2023-01-09T17:57:03.643Z,21.98
2023-01-09T17:59:30.978Z,26.48
2023-01-09T18:01:57.927Z,24.17
2023-01-09T18:04:24.715Z,25.20
2023-01-09T18:06:51.526Z,25.70
2023-01-09T18:09:18.496Z,26.08
2023-01-09T18:11:45.277Z,21.55
2023-01-09T18:14:13.777Z,20.60
2023-01-09T18:16:40.849Z,27.20
2023-01-09T18:19:07.593Z,27.70
2023-01-09T18:21:34.482Z,22.42
2023-01-09T18:24:02.302Z,26.90
2023-01-09T18:26:29.039Z,22.35
2023-01-09T18:28:58.597Z,28.98
2023-01-09T18:31:27.470Z,23.73
2023-01-09T18:33:56.596Z,27.58
2023-01-09T18:36:29.848Z,27.55
2023-01-09T18:38:58.964Z,23.23
2023-01-09T18:41:26.649Z,25.77
2023-01-09T18:43:56.250Z,28.95
2023-01-09T18:46:26.245Z,33.28
2023-01-09T18:48:54.537Z,29.38
2023-01-09T18:51:22.818Z,28.70
2023-01-09T18:53:50.658Z,26.15
2023-01-09T18:56:19.845Z,27.08
2023-01-09T18:58:47.868Z,23.90
2023-01-09T19:01:15.918Z,27.42
2023-01-09T19:03:42.740Z,20.70
2023-01-09T19:06:10.179Z,19.63
2023-01-09T19:08:37.423Z,23.98
2023-01-09T19:11:04.605Z,24.83
2023-01-09T19:13:33.448Z,23.83
2023-01-09T19:16:00.812Z,24.08
2023-01-09T19:18:29.417Z,23.27
2023-01-09T19:20:56.235Z,24.40
2023-01-09T19:23:26.196Z,22.42
2023-01-09T19:25:54.017Z,24.70
2023-01-09T19:28:21.555Z,25.13
2023-01-09T19:30:55.988Z,23.00
2023-01-09T19:33:24.747Z,25.40
2023-01-09T19:35:52.824Z,21.23
2023-01-09T19:38:22.421Z,19.85
2023-01-09T19:40:49.558Z,25.00
2023-01-09T19:43:25.925Z,25.90
2023-01-09T19:45:56.978Z,23.48
2023-01-09T19:48:27.108Z,21.63
2023-01-09T19:51:07.776Z,21.63
2023-01-09T19:56:14.379Z,21.05
2023-01-09T19:58:42.919Z,17.95
2023-01-09T20:01:14.398Z,18.73
2023-01-09T20:03:43.403Z,22.10
2023-01-09T20:06:17.470Z,22.80
2023-01-09T20:08:47.575Z,21.90
2023-01-09T20:11:15.817Z,20.70
2023-01-09T20:13:43.181Z,22.13
2023-01-09T20:16:20.263Z,23.10
2023-01-09T20:18:48.174Z,20.58
2023-01-09T20:23:51.326Z,19.75
2023-01-09T20:26:18.746Z,18.38
2023-01-09T20:28:45.775Z,24.80
2023-01-09T20:31:16.277Z,19.30
2023-01-09T20:36:10.718Z,23.15
2023-01-09T20:38:39.273Z,24.02
2023-01-09T20:41:08.381Z,21.63
2023-01-09T20:43:36.203Z,19.27
2023-01-09T20:46:07.433Z,19.23
2023-01-09T20:48:34.189Z,16.52
2023-01-09T20:51:08.172Z,19.00
2023-01-09T20:53:34.911Z,15.82
2023-01-09T20:56:03.614Z,17.15
2023-01-09T20:58:30.693Z,15.88
2023-01-09T21:00:57.524Z,18.75
2023-01-09T21:03:24.228Z,14.48
2023-01-09T21:05:51.207Z,15.82
2023-01-09T21:08:18.145Z,15.43
2023-01-09T21:10:44.969Z,14.38
2023-01-09T21:13:11.847Z,13.48
2023-01-09T21:15:39.045Z,13.60
2023-01-09T21:18:06.316Z,16.35
2023-01-09T21:20:33.283Z,15.93
2023-01-09T21:23:00.025Z,17.05
2023-01-09T21:25:26.752Z,16.00
2023-01-09T21:27:53.702Z,13.65
2023-01-09T21:30:21.662Z,14.80
2023-01-09T21:32:48.351Z,12.43
2023-01-09T21:35:16.224Z,14.25
2023-01-09T21:37:43.003Z,14.20
2023-01-09T21:40:17.561Z,15.20
2023-01-09T21:43:03.602Z,14.07
2023-01-09T21:45:49.009Z,13.55
2023-01-09T21:48:15.841Z,11.75
2023-01-09T21:50:42.822Z,14.95
2023-01-09T21:53:09.688Z,14.90
2023-01-09T21:55:36.511Z,14.30
2023-01-09T21:58:04.120Z,15.23
2023-01-09T22:00:31.069Z,15.05
2023-01-09T22:02:59.035Z,16.27
2023-01-09T22:05:27.188Z,16.10
2023-01-09T22:07:56.764Z,13.00
2023-01-09T22:10:23.515Z,16.48
2023-01-09T22:13:10.498Z,13.50
2023-01-09T22:15:37.403Z,11.25
2023-01-09T22:18:04.321Z,16.98
2023-01-09T22:20:31.832Z,17.15
2023-01-09T22:22:58.783Z,15.05
2023-01-09T22:25:25.511Z,14.13
2023-01-09T22:27:52.376Z,13.05
2023-01-09T22:30:19.199Z,14.43
2023-01-09T22:32:45.855Z,11.30
2023-01-09T22:35:12.572Z,14.27
2023-01-09T22:37:39.383Z,15.80
2023-01-09T22:40:06.431Z,12.48
2023-01-09T22:42:33.124Z,16.60
2023-01-09T22:44:59.951Z,13.70
2023-01-09T22:47:26.597Z,16.58
2023-01-09T22:49:53.873Z,14.88
2023-01-09T22:52:21.449Z,16.50
2023-01-09T22:54:48.683Z,18.23
2023-01-09T22:57:15.601Z,14.80
2023-01-09T22:59:42.365Z,17.65
2023-01-09T23:02:09.153Z,13.73
2023-01-09T23:04:36.047Z,19.05
2023-01-09T23:07:02.888Z,17.95
2023-01-09T23:09:29.638Z,13.20
2023-01-09T23:12:02.458Z,10.50
2023-01-09T23:14:39.169Z,13.57
2023-01-09T23:17:07.591Z,13.70
2023-01-09T23:19:34.464Z,13.90
2023-01-09T23:22:02.334Z,11.32
2023-01-09T23:24:29.520Z,14.80
2023-01-09T23:26:57.191Z,15.10
2023-01-09T23:29:24.858Z,14.38
2023-01-09T23:31:53.697Z,14.35
2023-01-09T23:34:24.358Z,17.67
2023-01-09T23:39:18.562Z,16.65
2023-01-09T23:42:04.103Z,16.35
2023-01-09T23:44:31.003Z,16.73
2023-01-09T23:46:57.864Z,17.55
2023-01-09T23:49:24.532Z,17.77
2023-01-09T23:51:51.415Z,15.80
2023-01-09T23:54:18.775Z,17.63
2023-01-09T23:56:45.538Z,20.23
2023-01-09T23:59:13.841Z,17.17
